sensor_id;sensor_type;location;lat;lon;timestamp;pressure;altitude;pressure_sealevel;temperature;humidity
44001;BME280;29660;42.892;24.710;2023-02-20T00:02:30;97249.97;;;10.61;65.81
44001;BME280;29660;42.892;24.710;2023-02-20T00:07:53;96973.25;;;8.83;65.35
44001;BME280;29660;42.892;24.710;2023-02-20T00:13:15;97247.88;;;10.57;65.95
44001;BME280;29660;42.892;24.710;2023-02-20T00:18:37;97034.44;;;9.22;65.98
44001;BME280;29660;42.892;24.710;2023-02-20T00:23:59;97260.78;;;10.45;66.22
44001;BME280;29660;42.892;24.710;2023-02-20T00:29:22;96955.09;;;8.51;66.99
44001;BME280;29660;42.892;24.710;2023-02-20T00:34:45;97231.97;;;10.08;67.42
44001;BME280;29660;42.892;24.710;2023-02-20T00:40:08;97247.59;;;10.20;66.78
44001;BME280;29660;42.892;24.710;2023-02-20T00:45:30;97252.41;;;10.18;66.99
44001;BME280;29660;42.892;24.710;2023-02-20T00:50:52;96988.38;;;8.38;67.04
44001;BME280;29660;42.892;24.710;2023-02-20T00:56:15;97239.22;;;9.97;67.95
44001;BME280;29660;42.892;24.710;2023-02-20T01:01:37;97257.69;;;9.83;69.51
44001;BME280;29660;42.892;24.710;2023-02-20T01:06:59;97236.19;;;9.75;69.02
44001;BME280;29660;42.892;24.710;2023-02-20T01:12:21;97187.88;;;9.47;69.05
44001;BME280;29660;42.892;24.710;2023-02-20T01:17:43;97222.38;;;9.63;68.61
44001;BME280;29660;42.892;24.710;2023-02-20T01:23:05;97239.44;;;9.62;68.97
44001;BME280;29660;42.892;24.710;2023-02-20T01:28:28;97190.59;;;9.32;69.16
44001;BME280;29660;42.892;24.710;2023-02-20T01:33:50;96951.88;;;7.74;69.01
44001;BME280;29660;42.892;24.710;2023-02-20T01:39:16;97134.34;;;8.94;68.59
44001;BME280;29660;42.892;24.710;2023-02-20T01:44:39;97032.00;;;8.11;69.81
44001;BME280;29660;42.892;24.710;2023-02-20T01:50:03;97182.22;;;8.94;70.69
44001;BME280;29660;42.892;24.710;2023-02-20T01:55:39;96936.28;;;7.42;69.83
44001;BME280;29660;42.892;24.710;2023-02-20T02:01:04;97010.00;;;7.80;70.80
44001;BME280;29660;42.892;24.710;2023-02-20T02:06:26;97146.69;;;8.59;70.52
44001;BME280;29660;42.892;24.710;2023-02-20T02:11:50;97248.16;;;9.07;70.88
44001;BME280;29660;42.892;24.710;2023-02-20T02:40:40;97244.34;;;9.34;68.61
44001;BME280;29660;42.892;24.710;2023-02-20T02:46:09;96958.59;;;7.51;68.03
44001;BME280;29660;42.892;24.710;2023-02-20T02:51:38;97169.25;;;8.82;68.13
44001;BME280;29660;42.892;24.710;2023-02-20T02:57:22;96953.28;;;7.51;68.04
44001;BME280;29660;42.892;24.710;2023-02-20T03:08:44;97254.22;;;9.23;69.13
44001;BME280;29660;42.892;24.710;2023-02-20T03:14:18;97198.22;;;8.84;69.56
44001;BME280;29660;42.892;24.710;2023-02-20T03:20:07;96949.31;;;7.28;70.05
44001;BME280;29660;42.892;24.710;2023-02-20T03:25:33;97262.50;;;9.22;70.02
44001;BME280;29660;42.892;24.710;2023-02-20T03:31:05;97198.75;;;8.86;68.71
44001;BME280;29660;42.892;24.710;2023-02-20T03:36:36;97205.16;;;8.85;67.54
44001;BME280;29660;42.892;24.710;2023-02-20T03:42:18;97255.34;;;9.12;64.51
44001;BME280;29660;42.892;24.710;2023-02-20T03:53:47;96967.88;;;7.33;63.03
44001;BME280;29660;42.892;24.710;2023-02-20T03:59:25;97256.41;;;9.11;63.14
44001;BME280;29660;42.892;24.710;2023-02-20T04:04:52;97208.88;;;8.74;63.06
44001;BME280;29660;42.892;24.710;2023-02-20T04:10:20;97215.25;;;8.78;61.21
44001;BME280;29660;42.892;24.710;2023-02-20T04:15:45;97227.75;;;8.72;60.72
44001;BME280;29660;42.892;24.710;2023-02-20T04:21:16;96983.78;;;7.23;60.81
44001;BME280;29660;42.892;24.710;2023-02-20T04:26:41;97039.50;;;7.38;60.22
44001;BME280;29660;42.892;24.710;2023-02-20T04:32:04;97285.19;;;8.94;59.88
44001;BME280;29660;42.892;24.710;2023-02-20T04:37:30;97205.72;;;8.31;59.85
44001;BME280;29660;42.892;24.710;2023-02-20T04:42:53;97285.47;;;8.82;60.60
44001;BME280;29660;42.892;24.710;2023-02-20T04:48:15;97242.41;;;8.44;61.87
44001;BME280;29660;42.892;24.710;2023-02-20T04:53:37;97048.78;;;7.30;61.30
44001;BME280;29660;42.892;24.710;2023-02-20T04:58:59;97065.25;;;7.27;62.21
44001;BME280;29660;42.892;24.710;2023-02-20T05:04:22;97282.53;;;8.48;63.23
44001;BME280;29660;42.892;24.710;2023-02-20T05:09:44;97195.59;;;7.67;62.81
44001;BME280;29660;42.892;24.710;2023-02-20T05:15:06;97346.09;;;8.54;61.49
44001;BME280;29660;42.892;24.710;2023-02-20T05:20:28;97210.44;;;7.78;61.94
44001;BME280;29660;42.892;24.710;2023-02-20T05:26:10;97341.84;;;8.58;60.64
44001;BME280;29660;42.892;24.710;2023-02-20T05:31:33;97302.41;;;8.25;59.91
44001;BME280;29660;42.892;24.710;2023-02-20T05:36:55;97383.28;;;8.44;57.79
44001;BME280;29660;42.892;24.710;2023-02-20T05:42:18;97368.41;;;8.64;57.49
44001;BME280;29660;42.892;24.710;2023-02-20T05:47:42;97040.28;;;6.30;57.73
44001;BME280;29660;42.892;24.710;2023-02-20T05:53:04;97328.44;;;8.07;57.75
44001;BME280;29660;42.892;24.710;2023-02-20T05:58:26;97152.09;;;6.84;58.52
44001;BME280;29660;42.892;24.710;2023-02-20T06:03:48;97407.47;;;8.38;58.96
44001;BME280;29660;42.892;24.710;2023-02-20T06:09:11;97195.91;;;7.02;59.16
44001;BME280;29660;42.892;24.710;2023-02-20T06:14:33;97002.59;;;5.70;59.36
44001;BME280;29660;42.892;24.710;2023-02-20T06:19:55;97276.47;;;7.44;59.44
44001;BME280;29660;42.892;24.710;2023-02-20T06:25:17;97442.84;;;8.53;58.06
44001;BME280;29660;42.892;24.710;2023-02-20T06:30:39;97267.09;;;7.31;56.63
44001;BME280;29660;42.892;24.710;2023-02-20T06:36:04;97489.69;;;8.70;56.03
44001;BME280;29660;42.892;24.710;2023-02-20T06:41:26;97104.34;;;6.22;55.91
44001;BME280;29660;42.892;24.710;2023-02-20T06:46:48;97488.38;;;8.88;55.42
44001;BME280;29660;42.892;24.710;2023-02-20T06:52:11;97229.47;;;7.39;54.94
44001;BME280;29660;42.892;24.710;2023-02-20T06:57:34;97040.81;;;6.32;54.55
44001;BME280;29660;42.892;24.710;2023-02-20T07:02:56;97495.34;;;9.34;53.23
44001;BME280;29660;42.892;24.710;2023-02-20T07:08:18;97496.69;;;9.52;53.18
44001;BME280;29660;42.892;24.710;2023-02-20T07:13:40;97510.50;;;9.65;52.30
44001;BME280;29660;42.892;24.710;2023-02-20T07:19:02;97438.38;;;9.15;51.65
44001;BME280;29660;42.892;24.710;2023-02-20T07:24:25;97521.13;;;9.95;50.78
44001;BME280;29660;42.892;24.710;2023-02-20T07:29:48;97346.34;;;8.94;49.25
44001;BME280;29660;42.892;24.710;2023-02-20T07:35:10;97309.94;;;8.74;48.27
44001;BME280;29660;42.892;24.710;2023-02-20T07:40:33;97541.84;;;10.39;47.96
44001;BME280;29660;42.892;24.710;2023-02-20T07:45:56;97337.50;;;9.44;47.03
44001;BME280;29660;42.892;24.710;2023-02-20T07:51:18;97340.75;;;9.10;44.74
44001;BME280;29660;42.892;24.710;2023-02-20T07:56:40;97537.69;;;10.72;43.51
44001;BME280;29660;42.892;24.710;2023-02-20T08:02:02;97481.00;;;10.51;43.05
44001;BME280;29660;42.892;24.710;2023-02-20T08:07:25;97435.06;;;10.60;43.54
44001;BME280;29660;42.892;24.710;2023-02-20T08:12:48;97502.69;;;10.84;41.29
44001;BME280;29660;42.892;24.710;2023-02-20T08:18:10;97560.66;;;11.23;39.82
44001;BME280;29660;42.892;24.710;2023-02-20T08:23:44;97285.69;;;9.81;40.69
44001;BME280;29660;42.892;24.710;2023-02-20T08:29:06;97488.31;;;10.80;37.87
44001;BME280;29660;42.892;24.710;2023-02-20T08:34:28;97496.81;;;11.26;39.21
44001;BME280;29660;42.892;24.710;2023-02-20T08:39:50;97298.13;;;9.96;38.37
44001;BME280;29660;42.892;24.710;2023-02-20T08:45:13;97565.25;;;11.57;38.00
44001;BME280;29660;42.892;24.710;2023-02-20T08:50:35;97289.34;;;9.90;36.59
44001;BME280;29660;42.892;24.710;2023-02-20T08:55:57;97414.78;;;10.64;36.92
44001;BME280;29660;42.892;24.710;2023-02-20T09:01:19;97508.19;;;11.42;36.18
44001;BME280;29660;42.892;24.710;2023-02-20T09:06:41;97358.47;;;10.21;36.42
44001;BME280;29660;42.892;24.710;2023-02-20T09:12:04;97467.22;;;10.84;36.25
44001;BME280;29660;42.892;24.710;2023-02-20T09:17:27;97555.50;;;11.31;36.38
44001;BME280;29660;42.892;24.710;2023-02-20T09:22:50;97311.91;;;10.08;34.63
44001;BME280;29660;42.892;24.710;2023-02-20T09:28:12;97490.03;;;11.39;34.17
44001;BME280;29660;42.892;24.710;2023-02-20T09:33:34;97337.53;;;10.48;33.86
44001;BME280;29660;42.892;24.710;2023-02-20T09:38:56;97526.28;;;11.11;32.98
44001;BME280;29660;42.892;24.710;2023-02-20T09:49:51;97546.13;;;11.39;31.30
44001;BME280;29660;42.892;24.710;2023-02-20T09:55:19;97560.44;;;11.53;32.39
44001;BME280;29660;42.892;24.710;2023-02-20T10:00:42;97318.06;;;10.03;31.38
44001;BME280;29660;42.892;24.710;2023-02-20T10:06:14;97417.69;;;10.67;32.49
44001;BME280;29660;42.892;24.710;2023-02-20T10:17:29;97578.91;;;11.50;32.38
44001;BME280;29660;42.892;24.710;2023-02-20T10:23:02;97559.56;;;11.29;31.97
44001;BME280;29660;42.892;24.710;2023-02-20T10:28:28;97334.75;;;9.65;31.23
44001;BME280;29660;42.892;24.710;2023-02-20T10:34:13;97312.13;;;9.62;31.45
44001;BME280;29660;42.892;24.710;2023-02-20T10:39:40;97465.13;;;10.75;32.06
44001;BME280;29660;42.892;24.710;2023-02-20T10:45:17;97488.00;;;11.26;32.10
44001;BME280;29660;42.892;24.710;2023-02-20T10:51:52;97304.56;;;9.84;32.98
44001;BME280;29660;42.892;24.710;2023-02-20T11:02:36;97528.69;;;11.47;33.88
44001;BME280;29660;42.892;24.710;2023-02-20T11:08:00;97407.47;;;10.79;33.39
44001;BME280;29660;42.892;24.710;2023-02-20T11:13:23;97339.75;;;10.36;33.29
44001;BME280;29660;42.892;24.710;2023-02-20T11:18:47;97457.13;;;11.15;32.42
44001;BME280;29660;42.892;24.710;2023-02-20T11:29:51;97327.88;;;10.57;32.82
44001;BME280;29660;42.892;24.710;2023-02-20T11:40:39;97338.16;;;10.74;32.99
44001;BME280;29660;42.892;24.710;2023-02-20T11:51:44;97521.28;;;11.73;33.51
44001;BME280;29660;42.892;24.710;2023-02-20T11:57:27;97292.31;;;10.33;33.01
44001;BME280;29660;42.892;24.710;2023-02-20T12:03:13;97491.47;;;11.61;32.88
44001;BME280;29660;42.892;24.710;2023-02-20T12:14:00;97227.44;;;10.08;32.41
44001;BME280;29660;42.892;24.710;2023-02-20T12:25:23;97554.84;;;11.89;32.41
44001;BME280;29660;42.892;24.710;2023-02-20T12:31:17;97486.97;;;11.56;33.20
44001;BME280;29660;42.892;24.710;2023-02-20T12:48:06;97487.00;;;11.51;33.71
44001;BME280;29660;42.892;24.710;2023-02-20T13:04:44;97367.38;;;10.90;33.08
44001;BME280;29660;42.892;24.710;2023-02-20T13:10:23;97494.50;;;11.78;32.75
44001;BME280;29660;42.892;24.710;2023-02-20T13:21:40;97532.63;;;11.60;34.13
44001;BME280;29660;42.892;24.710;2023-02-20T13:27:05;97471.38;;;11.34;33.02
44001;BME280;29660;42.892;24.710;2023-02-20T13:32:30;97531.09;;;11.48;33.21
44001;BME280;29660;42.892;24.710;2023-02-20T13:37:55;97484.78;;;11.29;32.90
44001;BME280;29660;42.892;24.710;2023-02-20T13:43:23;97256.41;;;9.76;33.02
44001;BME280;29660;42.892;24.710;2023-02-20T13:48:51;97489.69;;;11.17;33.55
44001;BME280;29660;42.892;24.710;2023-02-20T13:54:22;97255.94;;;9.64;33.15
44001;BME280;29660;42.892;24.710;2023-02-20T13:59:49;97527.94;;;11.41;33.21
44001;BME280;29660;42.892;24.710;2023-02-20T14:05:28;97258.59;;;9.64;32.91
44001;BME280;29660;42.892;24.710;2023-02-20T14:10:51;97491.09;;;11.04;33.30
44001;BME280;29660;42.892;24.710;2023-02-20T14:21:47;97526.22;;;11.21;33.40
44001;BME280;29660;42.892;24.710;2023-02-20T14:27:26;97534.53;;;11.15;33.57
44001;BME280;29660;42.892;24.710;2023-02-20T14:32:51;97272.28;;;9.42;33.74
44001;BME280;29660;42.892;24.710;2023-02-20T14:44:29;97483.94;;;10.45;34.18
44001;BME280;29660;42.892;24.710;2023-02-20T14:49:51;97237.84;;;8.85;34.07
44001;BME280;29660;42.892;24.710;2023-02-20T14:55:16;97282.22;;;9.05;34.53
44001;BME280;29660;42.892;24.710;2023-02-20T15:00:40;97277.44;;;9.02;34.58
44001;BME280;29660;42.892;24.710;2023-02-20T15:06:02;97547.69;;;10.41;34.72
44001;BME280;29660;42.892;24.710;2023-02-20T15:11:26;97493.91;;;10.08;35.02
44001;BME280;29660;42.892;24.710;2023-02-20T15:17:27;97562.13;;;10.30;35.32
44001;BME280;29660;42.892;24.710;2023-02-20T15:22:47;97479.59;;;9.84;35.49
44001;BME280;29660;42.892;24.710;2023-02-20T15:33:45;97491.31;;;9.73;36.15
44001;BME280;29660;42.892;24.710;2023-02-20T15:39:10;97290.25;;;8.44;36.72
